createdAt,value
2022-10-22T00:00:02.710Z,1014.9
2022-10-22T00:01:02.350Z,1015
2022-10-22T00:02:02.286Z,1014.9
2022-10-22T00:03:02.633Z,1014.9
2022-10-22T00:04:02.469Z,1014.9
2022-10-22T00:05:02.495Z,1014.8
2022-10-22T00:06:02.479Z,1014.8
2022-10-22T00:07:02.451Z,1014.7
2022-10-22T00:08:02.425Z,1014.8
2022-10-22T00:09:02.667Z,1014.7
2022-10-22T00:10:02.507Z,1014.7
2022-10-22T00:11:02.431Z,1014.8
2022-10-22T00:12:02.398Z,1014.8
2022-10-22T00:13:02.298Z,1014.9
2022-10-22T00:14:02.207Z,1014.7
2022-10-22T00:15:02.126Z,1014.8
2022-10-22T00:16:01.836Z,1014.8
2022-10-22T00:17:01.781Z,1014.8
2022-10-22T00:18:02.736Z,1014.8
2022-10-22T00:19:03.141Z,1014.7
2022-10-22T00:20:01.959Z,1014.8
2022-10-22T00:21:01.783Z,1014.8
2022-10-22T00:22:02.724Z,1014.8
2022-10-22T00:23:02.674Z,1014.7
2022-10-22T00:24:02.740Z,1014.8
2022-10-22T00:25:02.588Z,1014.8
2022-10-22T00:26:02.615Z,1014.8
2022-10-22T00:27:02.530Z,1014.8
2022-10-22T00:28:02.486Z,1014.8
2022-10-22T00:29:02.340Z,1014.8
2022-10-22T00:30:02.299Z,1014.8
2022-10-22T00:31:02.141Z,1014.9
2022-10-22T00:32:02.015Z,1014.8
2022-10-22T00:33:01.905Z,1014.9
2022-10-22T00:34:01.815Z,1014.8
2022-10-22T00:35:01.739Z,1014.9
2022-10-22T00:36:02.699Z,1014.8
2022-10-22T00:37:02.657Z,1014.8
2022-10-22T00:38:02.576Z,1014.8
2022-10-22T00:39:02.534Z,1014.8
2022-10-22T00:40:02.499Z,1014.8
2022-10-22T00:42:02.393Z,1014.8
2022-10-22T00:43:02.278Z,1014.8
2022-10-22T00:44:02.157Z,1014.8
2022-10-22T00:45:02.112Z,1014.8
2022-10-22T00:46:01.808Z,1014.8
2022-10-22T00:47:02.684Z,1014.8
2022-10-22T00:48:02.664Z,1014.8
2022-10-22T00:49:02.657Z,1014.7
2022-10-22T00:51:02.333Z,1014.7
2022-10-22T00:52:02.314Z,1014.7
2022-10-22T00:53:02.263Z,1014.7
2022-10-22T00:54:02.178Z,1014.6
2022-10-22T00:55:02.136Z,1014.7
2022-10-22T00:56:02.028Z,1014.6
2022-10-22T00:57:01.929Z,1014.7
2022-10-22T00:58:01.819Z,1014.7
2022-10-22T00:59:01.990Z,1014.6
2022-10-22T01:00:01.882Z,1014.7
2022-10-22T01:01:02.851Z,1014.7
2022-10-22T01:02:02.655Z,1014.7
2022-10-22T01:03:02.610Z,1014.7
2022-10-22T01:04:02.601Z,1014.7
2022-10-22T01:05:02.520Z,1014.7
2022-10-22T01:06:02.442Z,1014.7
2022-10-22T01:07:02.413Z,1014.7
2022-10-22T01:08:02.511Z,1014.7
2022-10-22T01:09:02.793Z,1014.8
2022-10-22T01:10:02.598Z,1014.7
2022-10-22T01:11:02.557Z,1014.8
2022-10-22T01:12:02.484Z,1014.8
2022-10-22T01:13:02.396Z,1014.8
2022-10-22T01:14:02.462Z,1014.8
2022-10-22T01:15:02.324Z,1014.8
2022-10-22T01:16:02.023Z,1014.8
2022-10-22T01:17:01.890Z,1014.8
2022-10-22T01:18:01.799Z,1014.8
2022-10-22T01:19:01.815Z,1014.7
2022-10-22T01:20:02.761Z,1014.7
2022-10-22T01:21:02.733Z,1014.7
2022-10-22T01:22:02.622Z,1014.7
2022-10-22T01:23:02.552Z,1014.7
2022-10-22T01:24:02.527Z,1014.7
2022-10-22T01:25:02.446Z,1014.7
2022-10-22T01:26:02.364Z,1014.6
2022-10-22T01:27:02.400Z,1014.5
2022-10-22T01:28:02.353Z,1014.6
2022-10-22T01:29:02.232Z,1014.6
2022-10-22T01:30:02.152Z,1014.6
2022-10-22T01:31:01.841Z,1014.5
2022-10-22T01:32:01.830Z,1014.6
2022-10-22T01:33:02.750Z,1014.6
2022-10-22T01:34:02.674Z,1014.5
2022-10-22T01:35:02.624Z,1014.6
2022-10-22T01:36:02.594Z,1014.6
2022-10-22T01:37:02.532Z,1014.5
2022-10-22T01:38:02.475Z,1014.6
2022-10-22T01:39:02.444Z,1014.5
2022-10-22T01:40:02.406Z,1014.5
2022-10-22T01:41:02.418Z,1014.5
2022-10-22T01:42:02.377Z,1014.5
2022-10-22T01:43:02.322Z,1014.5
2022-10-22T01:44:02.215Z,1014.6
2022-10-22T01:45:02.217Z,1014.5
2022-10-22T01:46:01.837Z,1014.5
2022-10-22T01:47:01.817Z,1014.5
2022-10-22T01:48:02.740Z,1014.5
2022-10-22T01:49:02.669Z,1014.6
2022-10-22T01:50:02.607Z,1014.5
2022-10-22T01:51:02.589Z,1014.5
2022-10-22T01:52:02.565Z,1014.5
2022-10-22T01:53:02.492Z,1014.5
2022-10-22T01:54:02.451Z,1014.5
2022-10-22T01:55:02.383Z,1014.4
2022-10-22T01:56:02.390Z,1014.5
2022-10-22T01:57:02.250Z,1014.5
2022-10-22T01:58:02.172Z,1014.4
2022-10-22T01:59:02.118Z,1014.5
2022-10-22T02:00:02.165Z,1014.4
2022-10-22T02:01:02.767Z,1014.5
2022-10-22T02:02:02.631Z,1014.5
2022-10-22T02:03:02.637Z,1014.5
2022-10-22T02:04:02.618Z,1014.4
2022-10-22T02:05:02.550Z,1014.4
2022-10-22T02:06:02.550Z,1014.5
2022-10-22T02:07:02.464Z,1014.4
2022-10-22T02:08:02.435Z,1014.4
2022-10-22T02:09:02.660Z,1014.4
2022-10-22T02:10:02.495Z,1014.3
2022-10-22T02:11:02.419Z,1014.4
2022-10-22T02:12:02.567Z,1014.4
2022-10-22T02:13:02.409Z,1014.4
2022-10-22T02:14:02.352Z,1014.4
2022-10-22T02:15:02.298Z,1014.5
2022-10-22T02:16:02.316Z,1014.5
2022-10-22T02:17:02.257Z,1014.5
2022-10-22T02:18:02.134Z,1014.5
2022-10-22T02:19:02.023Z,1014.4
2022-10-22T02:20:01.930Z,1014.4
2022-10-22T02:21:01.971Z,1014.4
2022-10-22T02:22:01.784Z,1014.4
2022-10-22T02:23:02.846Z,1014.4
2022-10-22T02:24:02.680Z,1014.3
2022-10-22T02:25:02.675Z,1014.4
2022-10-22T02:26:02.603Z,1014.4
2022-10-22T02:27:02.608Z,1014.5
2022-10-22T02:28:02.519Z,1014.4
2022-10-22T02:29:02.511Z,1014.5
2022-10-22T02:30:02.648Z,1014.4
2022-10-22T02:31:02.187Z,1014.4
2022-10-22T02:32:02.124Z,1014.4
2022-10-22T02:33:02.045Z,1014.3
2022-10-22T02:34:01.943Z,1014.4
2022-10-22T02:35:01.884Z,1014.3
2022-10-22T02:36:01.810Z,1014.3
2022-10-22T02:37:02.742Z,1014.3
2022-10-22T02:38:02.651Z,1014.2
2022-10-22T02:39:02.643Z,1014.2
2022-10-22T02:40:02.551Z,1014.2
2022-10-22T02:41:02.495Z,1014.3
2022-10-22T02:42:02.435Z,1014.3
2022-10-22T02:43:02.361Z,1014.3
2022-10-22T02:44:02.303Z,1014.4
2022-10-22T02:45:02.205Z,1014.4
2022-10-22T02:46:01.818Z,1014.4
2022-10-22T02:47:01.809Z,1014.4
2022-10-22T02:48:02.696Z,1014.4
2022-10-22T02:49:02.683Z,1014.4
2022-10-22T02:50:10.640Z,1014.5
2022-10-22T02:51:02.462Z,1014.5
2022-10-22T02:52:02.441Z,1014.5
2022-10-22T02:53:02.401Z,1014.5
2022-10-22T02:54:02.330Z,1014.5
2022-10-22T02:55:02.364Z,1014.5
2022-10-22T02:56:02.309Z,1014.6
2022-10-22T02:57:02.204Z,1014.6
2022-10-22T02:58:02.101Z,1014.6
2022-10-22T02:59:02.080Z,1014.6
2022-10-22T03:00:02.056Z,1014.5
2022-10-22T03:01:01.987Z,1014.6
2022-10-22T03:02:01.773Z,1014.7
2022-10-22T03:03:02.787Z,1014.6
2022-10-22T03:04:02.709Z,1014.7
2022-10-22T03:05:02.688Z,1014.7
2022-10-22T03:06:02.610Z,1014.6
2022-10-22T03:07:02.553Z,1014.6
2022-10-22T03:08:02.510Z,1014.7
2022-10-22T03:09:02.622Z,1014.6
2022-10-22T03:10:02.450Z,1014.6
2022-10-22T03:11:02.361Z,1014.6
2022-10-22T03:12:02.279Z,1014.7
2022-10-22T03:13:02.207Z,1014.7
2022-10-22T03:14:02.144Z,1014.8
2022-10-22T03:15:02.088Z,1014.8
2022-10-22T03:16:02.012Z,1014.8
2022-10-22T03:17:01.886Z,1014.7
2022-10-22T03:18:01.931Z,1014.7
2022-10-22T03:19:02.849Z,1014.7
2022-10-22T03:20:02.701Z,1014.7
2022-10-22T03:21:02.608Z,1014.7
2022-10-22T03:22:02.548Z,1014.7
2022-10-22T03:23:02.392Z,1014.7
2022-10-22T03:24:02.388Z,1014.7
2022-10-22T03:25:02.493Z,1014.6
2022-10-22T03:26:02.347Z,1014.6
2022-10-22T03:27:02.287Z,1014.6
2022-10-22T03:28:02.285Z,1014.5
2022-10-22T03:29:02.221Z,1014.6
2022-10-22T03:30:02.140Z,1014.4
2022-10-22T03:31:01.861Z,1014.5
2022-10-22T03:32:01.803Z,1014.4
2022-10-22T03:33:01.787Z,1014.4
2022-10-22T03:34:02.716Z,1014.4
2022-10-22T03:35:02.720Z,1014.3
2022-10-22T03:36:02.588Z,1014.3
2022-10-22T03:37:02.548Z,1014.4
2022-10-22T03:38:02.469Z,1014.3
2022-10-22T03:39:02.421Z,1014.3
2022-10-22T03:40:02.371Z,1014.3
2022-10-22T03:41:02.295Z,1014.2
2022-10-22T03:42:02.210Z,1014.2
2022-10-22T03:43:02.122Z,1014.3
2022-10-22T03:44:02.079Z,1014.3
2022-10-22T03:45:02.086Z,1014.2
2022-10-22T03:46:01.761Z,1014.3
2022-10-22T03:47:03.400Z,1014.3
2022-10-22T03:48:02.405Z,1014.2
2022-10-22T03:49:02.195Z,1014.3
2022-10-22T03:50:02.126Z,1014.4
2022-10-22T03:51:01.974Z,1014.3
2022-10-22T03:52:01.825Z,1014.4
2022-10-22T03:53:01.773Z,1014.3
2022-10-22T03:54:02.721Z,1014.4
2022-10-22T03:55:02.699Z,1014.5
2022-10-22T03:56:02.608Z,1014.5
2022-10-22T03:57:02.574Z,1014.4
2022-10-22T03:58:02.548Z,1014.5
2022-10-22T03:59:02.492Z,1014.5
2022-10-22T04:00:02.558Z,1014.5
2022-10-22T04:01:02.442Z,1014.5
2022-10-22T04:02:02.254Z,1014.5
2022-10-22T04:03:02.234Z,1014.4
2022-10-22T04:04:02.182Z,1014.4
2022-10-22T04:05:02.417Z,1014.5
2022-10-22T04:06:02.302Z,1014.5
2022-10-22T04:07:02.170Z,1014.5
2022-10-22T04:08:02.123Z,1014.6
2022-10-22T04:09:02.248Z,1014.7
2022-10-22T04:10:02.098Z,1014.7
2022-10-22T04:11:01.983Z,1014.7
2022-10-22T04:12:01.856Z,1014.7
2022-10-22T04:13:01.793Z,1014.7
2022-10-22T04:14:02.734Z,1014.6
2022-10-22T04:15:02.748Z,1014.7
2022-10-22T04:16:02.411Z,1014.7
2022-10-22T04:17:02.332Z,1014.7
2022-10-22T04:18:02.251Z,1014.7
2022-10-22T04:19:02.191Z,1014.7
2022-10-22T04:20:02.148Z,1014.6
2022-10-22T04:21:02.103Z,1014.7
2022-10-22T04:22:02.074Z,1014.6
2022-10-22T04:23:01.985Z,1014.6
2022-10-22T04:24:01.938Z,1014.5
2022-10-22T04:25:01.891Z,1014.5
2022-10-22T04:26:01.785Z,1014.4
2022-10-22T04:27:01.777Z,1014.4
2022-10-22T04:28:02.731Z,1014.3
2022-10-22T04:29:02.676Z,1014.3
2022-10-22T04:30:02.636Z,1014.3
2022-10-22T04:31:02.559Z,1014.2
2022-10-22T04:32:02.541Z,1014.2
2022-10-22T04:33:02.531Z,1014.2
2022-10-22T04:34:02.420Z,1014.1
2022-10-22T04:35:02.400Z,1014.1
2022-10-22T04:36:02.331Z,1014.1
2022-10-22T04:37:02.325Z,1014.2
2022-10-22T04:38:02.219Z,1014.2
2022-10-22T04:39:02.096Z,1014.2
2022-10-22T04:40:01.999Z,1014.2
2022-10-22T04:41:01.954Z,1014.1
2022-10-22T04:42:01.860Z,1014.1
2022-10-22T04:43:01.765Z,1014.2
2022-10-22T04:44:02.918Z,1014.2
2022-10-22T04:45:01.894Z,1014
2022-10-22T04:46:01.856Z,1014.1
2022-10-22T04:47:01.781Z,1014.1
2022-10-22T04:48:02.731Z,1014.1
2022-10-22T04:49:02.669Z,1014.1
2022-10-22T04:50:02.673Z,1014.1
2022-10-22T04:51:02.551Z,1014
2022-10-22T04:52:02.525Z,1014.1
2022-10-22T04:53:02.511Z,1014
2022-10-22T04:54:02.435Z,1014
2022-10-22T04:55:02.377Z,1013.9
2022-10-22T04:56:02.326Z,1014
2022-10-22T04:57:02.312Z,1014
2022-10-22T04:58:02.222Z,1014
2022-10-22T04:59:02.161Z,1013.9
2022-10-22T05:00:02.125Z,1013.9
2022-10-22T05:01:02.403Z,1013.8
2022-10-22T05:02:02.212Z,1013.9
2022-10-22T05:03:02.146Z,1013.9
2022-10-22T05:04:02.047Z,1013.9
2022-10-22T05:05:01.910Z,1013.9
2022-10-22T05:06:02.059Z,1013.9
2022-10-22T05:07:01.825Z,1013.9
2022-10-22T05:08:01.765Z,1013.9
2022-10-22T05:09:03.191Z,1013.9
2022-10-22T05:10:02.025Z,1014
2022-10-22T05:11:01.837Z,1014
2022-10-22T05:12:01.793Z,1014.1
2022-10-22T05:13:02.731Z,1014.1
2022-10-22T05:14:02.652Z,1014.2
2022-10-22T05:15:02.611Z,1014.2
2022-10-22T05:16:02.621Z,1014.2
2022-10-22T05:17:02.751Z,1014.4
2022-10-22T05:18:02.526Z,1014.3
2022-10-22T05:19:02.450Z,1014.4
2022-10-22T05:20:02.389Z,1014.3
2022-10-22T05:21:02.301Z,1014.4
2022-10-22T05:22:02.243Z,1014.3
2022-10-22T05:23:02.186Z,1014.3
2022-10-22T05:24:02.203Z,1014.4
2022-10-22T05:25:02.256Z,1014.4
2022-10-22T05:26:02.192Z,1014.3
2022-10-22T05:27:02.131Z,1014.4
2022-10-22T05:28:02.118Z,1014.4
2022-10-22T05:29:02.097Z,1014.4
2022-10-22T05:30:02.081Z,1014.4
2022-10-22T05:31:01.797Z,1014.3
2022-10-22T05:32:01.777Z,1014.3
2022-10-22T05:33:02.737Z,1014.4
2022-10-22T05:34:02.667Z,1014.5
2022-10-22T05:35:02.652Z,1014.4
2022-10-22T05:36:02.546Z,1014.4
2022-10-22T05:37:02.511Z,1014.5
2022-10-22T05:38:02.478Z,1014.6
2022-10-22T05:39:02.399Z,1014.5
2022-10-22T05:40:31.283Z,1014.5
2022-10-22T05:41:02.304Z,1014.5
2022-10-22T05:42:02.227Z,1014.4
2022-10-22T05:43:02.214Z,1014.3
2022-10-22T05:44:02.143Z,1014.2
2022-10-22T05:45:02.108Z,1014.2
2022-10-22T05:46:02.693Z,1014.2
2022-10-22T05:47:02.657Z,1014.2
2022-10-22T05:48:02.614Z,1014.2
2022-10-22T05:49:02.520Z,1014.2
2022-10-22T05:50:02.430Z,1014.2
2022-10-22T05:51:02.379Z,1014.3
2022-10-22T05:52:02.318Z,1014.3
2022-10-22T05:53:02.256Z,1014.4
2022-10-22T05:54:02.184Z,1014.4
2022-10-22T05:55:02.106Z,1014.5
2022-10-22T05:56:02.043Z,1014.5
2022-10-22T05:57:01.917Z,1014.4
2022-10-22T05:58:01.838Z,1014.4
2022-10-22T06:00:02.335Z,1014.4
2022-10-22T06:01:01.876Z,1014.4
2022-10-22T06:02:02.001Z,1014.4
2022-10-22T06:03:01.796Z,1014.3
2022-10-22T06:04:02.904Z,1014.3
2022-10-22T06:05:02.703Z,1014.3
2022-10-22T06:06:02.629Z,1014.3
2022-10-22T06:07:02.546Z,1014.3
2022-10-22T06:08:02.616Z,1014.4
2022-10-22T06:09:02.846Z,1014.4
2022-10-22T06:10:02.684Z,1014.4
2022-10-22T06:11:02.655Z,1014.5
2022-10-22T06:12:02.571Z,1014.5
2022-10-22T06:13:02.525Z,1014.5
2022-10-22T06:14:02.450Z,1014.5
2022-10-22T06:15:02.382Z,1014.6
2022-10-22T06:16:02.133Z,1014.6
2022-10-22T06:17:02.081Z,1014.6
2022-10-22T06:18:02.022Z,1014.7
2022-10-22T06:19:01.982Z,1014.7
2022-10-22T06:20:02.173Z,1014.8
2022-10-22T06:21:01.995Z,1014.8
2022-10-22T06:22:01.903Z,1014.9
2022-10-22T06:23:01.813Z,1014.9
2022-10-22T06:24:01.747Z,1014.9
2022-10-22T06:25:02.830Z,1014.9
2022-10-22T06:26:02.718Z,1015
2022-10-22T06:27:02.695Z,1014.9
2022-10-22T06:28:02.556Z,1014.8
2022-10-22T06:29:02.594Z,1014.9
2022-10-22T06:30:02.478Z,1014.8
2022-10-22T06:31:02.413Z,1014.8
2022-10-22T06:32:02.459Z,1014.8
2022-10-22T06:33:02.431Z,1014.8
2022-10-22T06:34:02.380Z,1014.9
2022-10-22T06:35:02.341Z,1015
2022-10-22T06:36:08.194Z,1014.9
2022-10-22T06:37:01.990Z,1014.9
2022-10-22T06:38:01.878Z,1014.9
2022-10-22T06:39:01.787Z,1014.9
2022-10-22T06:40:02.741Z,1014.9
2022-10-22T06:41:02.656Z,1014.9
2022-10-22T06:42:02.664Z,1015
2022-10-22T06:43:02.593Z,1015.1
2022-10-22T06:44:02.605Z,1015
2022-10-22T06:46:02.481Z,1015
2022-10-22T06:47:02.205Z,1015
2022-10-22T06:48:02.104Z,1015
2022-10-22T06:49:02.006Z,1015
2022-10-22T06:50:01.932Z,1015
2022-10-22T06:51:01.861Z,1015
2022-10-22T06:52:01.814Z,1015
2022-10-22T06:53:02.742Z,1015
2022-10-22T06:54:02.700Z,1015
2022-10-22T06:55:02.759Z,1014.9
2022-10-22T06:56:02.652Z,1015.1
2022-10-22T06:57:02.648Z,1014.9
2022-10-22T06:58:02.536Z,1014.9
2022-10-22T06:59:02.527Z,1015
2022-10-22T07:00:02.454Z,1015.1
2022-10-22T07:01:02.729Z,1015
2022-10-22T07:02:02.601Z,1015.1
2022-10-22T07:03:02.553Z,1015
2022-10-22T07:04:02.601Z,1015
2022-10-22T07:05:02.585Z,1015
2022-10-22T07:06:02.502Z,1015.1
2022-10-22T07:07:02.454Z,1015
2022-10-22T07:08:02.319Z,1015.1
2022-10-22T07:09:02.624Z,1015
2022-10-22T07:10:02.568Z,1015
2022-10-22T07:11:02.434Z,1015
2022-10-22T07:12:02.395Z,1015
2022-10-22T07:13:02.364Z,1015.1
2022-10-22T07:14:02.337Z,1015.1
2022-10-22T07:15:02.206Z,1014.9
2022-10-22T07:16:02.099Z,1014.9
2022-10-22T07:17:01.890Z,1014.9
2022-10-22T07:18:01.815Z,1014.9
2022-10-22T07:19:01.740Z,1015
2022-10-22T07:20:02.776Z,1015
2022-10-22T07:21:02.677Z,1015
2022-10-22T07:22:02.710Z,1014.9
2022-10-22T07:23:02.572Z,1015
2022-10-22T07:24:02.529Z,1015
2022-10-22T07:25:07.943Z,1015
2022-10-22T07:26:03.127Z,1015
2022-10-22T07:27:01.862Z,1015
2022-10-22T07:28:01.838Z,1015
2022-10-22T07:29:02.758Z,1014.9
2022-10-22T07:30:02.824Z,1015
2022-10-22T07:31:02.657Z,1015
2022-10-22T07:32:02.286Z,1015
2022-10-22T07:33:02.241Z,1015.1
2022-10-22T07:34:02.119Z,1015.1
2022-10-22T07:35:02.037Z,1015.1
2022-10-22T07:36:01.921Z,1015
2022-10-22T07:37:01.814Z,1015
2022-10-22T07:38:01.765Z,1015
2022-10-22T07:39:02.709Z,1015
2022-10-22T07:40:04.684Z,1015.1
2022-10-22T07:41:02.457Z,1015.1
2022-10-22T07:42:02.392Z,1015.1
2022-10-22T07:43:02.340Z,1015.1
2022-10-22T07:44:02.295Z,1015
2022-10-22T07:45:03.703Z,1014.9
2022-10-22T07:46:02.513Z,1014.9
2022-10-22T07:47:01.977Z,1014.9
2022-10-22T07:48:01.861Z,1014.8
2022-10-22T07:49:01.814Z,1014.8
2022-10-22T07:50:02.754Z,1014.9
2022-10-22T07:51:02.662Z,1015
2022-10-22T07:52:02.654Z,1015
2022-10-22T07:53:02.605Z,1015
2022-10-22T07:54:02.655Z,1015.1
2022-10-22T07:55:02.582Z,1015.1
2022-10-22T07:56:02.600Z,1015.1
2022-10-22T07:57:02.550Z,1015.2
2022-10-22T07:58:02.449Z,1015.2
2022-10-22T08:00:02.331Z,1015.2
2022-10-22T08:01:02.479Z,1015.2
2022-10-22T08:02:02.247Z,1015.2
2022-10-22T08:03:02.117Z,1015.1
2022-10-22T08:04:02.069Z,1015
2022-10-22T08:05:02.012Z,1015
2022-10-22T08:06:01.947Z,1014.9
2022-10-22T08:07:01.854Z,1015
2022-10-22T08:08:01.792Z,1014.9
2022-10-22T08:09:02.074Z,1014.9
2022-10-22T08:10:01.886Z,1014.9
2022-10-22T08:11:01.844Z,1014.9
2022-10-22T08:12:02.781Z,1014.9
2022-10-22T08:13:02.700Z,1014.9
2022-10-22T08:14:02.622Z,1014.8
2022-10-22T08:15:02.737Z,1014.8
2022-10-22T08:16:02.614Z,1014.8
2022-10-22T08:17:02.449Z,1014.8
2022-10-22T08:18:02.384Z,1014.9
2022-10-22T08:19:02.263Z,1014.9
2022-10-22T08:20:02.192Z,1015
2022-10-22T08:21:02.147Z,1015
2022-10-22T08:22:02.100Z,1015.1
2022-10-22T08:23:02.010Z,1015.1
2022-10-22T08:24:02.141Z,1015
2022-10-22T08:25:01.995Z,1015.1
2022-10-22T08:26:01.861Z,1015
2022-10-22T08:27:01.794Z,1015.1
2022-10-22T08:28:02.743Z,1015.1
2022-10-22T08:29:02.677Z,1015.1
2022-10-22T08:30:02.709Z,1015.1
2022-10-22T08:31:02.604Z,1015
2022-10-22T08:32:02.659Z,1015
2022-10-22T08:33:02.617Z,1015
2022-10-22T08:34:02.542Z,1015
2022-10-22T08:35:02.464Z,1015.1
2022-10-22T08:36:02.420Z,1015
2022-10-22T08:37:02.382Z,1015
2022-10-22T08:38:02.303Z,1015.1
2022-10-22T08:39:02.207Z,1015.1
2022-10-22T08:40:02.175Z,1015.1
2022-10-22T08:41:02.047Z,1015.2
2022-10-22T08:42:01.938Z,1015.2
2022-10-22T08:43:01.840Z,1015.2
2022-10-22T08:44:01.772Z,1015.1
2022-10-22T08:45:05.048Z,1015.3
2022-10-22T08:46:01.825Z,1015.3
2022-10-22T08:47:02.585Z,1015.3
2022-10-22T08:48:02.555Z,1015.4
2022-10-22T08:49:02.743Z,1015.4
2022-10-22T08:50:02.591Z,1015.3
2022-10-22T08:51:02.553Z,1015.4
2022-10-22T08:52:02.517Z,1015.4
2022-10-22T08:53:02.416Z,1015.3
2022-10-22T08:54:02.378Z,1015.4
2022-10-22T08:55:02.304Z,1015.3
2022-10-22T08:56:02.199Z,1015.4
2022-10-22T08:57:02.131Z,1015.3
2022-10-22T08:58:02.014Z,1015.3
2022-10-22T08:59:01.923Z,1015.3
2022-10-22T09:00:01.847Z,1015.3
2022-10-22T09:01:01.789Z,1015.4
2022-10-22T09:02:01.971Z,1015.4
2022-10-22T09:03:01.891Z,1015.4
2022-10-22T09:04:01.831Z,1015.3
2022-10-22T09:05:02.775Z,1015.3
2022-10-22T09:06:02.651Z,1015.3
2022-10-22T09:07:02.634Z,1015.3
2022-10-22T09:08:02.566Z,1015.2
2022-10-22T09:09:02.935Z,1015.3
2022-10-22T09:10:01.820Z,1015.3
2022-10-22T09:11:02.735Z,1015.2
2022-10-22T09:12:02.650Z,1015.3
2022-10-22T09:13:02.633Z,1015.2
2022-10-22T09:14:02.806Z,1015.2
2022-10-22T09:15:02.659Z,1015.1
2022-10-22T09:16:02.678Z,1015.1
2022-10-22T09:17:02.526Z,1015.2
2022-10-22T09:18:02.561Z,1015.2
2022-10-22T09:19:02.536Z,1015.3
2022-10-22T09:20:02.993Z,1015.3
2022-10-22T09:21:01.926Z,1015.2
2022-10-22T09:22:01.908Z,1015.2
2022-10-22T09:23:02.016Z,1015.3
2022-10-22T09:24:01.806Z,1015.3
2022-10-22T09:25:03.010Z,1015.3
2022-10-22T09:26:01.791Z,1015.3
2022-10-22T09:27:02.827Z,1015.4
2022-10-22T09:28:02.673Z,1015.3
2022-10-22T09:29:02.758Z,1015.4
2022-10-22T09:30:02.545Z,1015.4
2022-10-22T09:31:02.643Z,1015.4
2022-10-22T09:32:02.656Z,1015.4
2022-10-22T09:33:02.703Z,1015.5
2022-10-22T09:34:02.566Z,1015.5
2022-10-22T09:35:02.642Z,1015.6
2022-10-22T09:36:02.469Z,1015.6
2022-10-22T09:37:02.561Z,1015.6
2022-10-22T09:38:02.493Z,1015.6
2022-10-22T09:39:02.313Z,1015.5
2022-10-22T09:40:02.376Z,1015.4
2022-10-22T09:41:02.325Z,1015.5
2022-10-22T09:42:02.136Z,1015.4
2022-10-22T09:43:02.128Z,1015.4
2022-10-22T09:44:01.961Z,1015.4
2022-10-22T09:45:01.998Z,1015.4
2022-10-22T09:46:01.773Z,1015.4
2022-10-22T09:47:01.828Z,1015.5
2022-10-22T09:48:03.135Z,1015.4
2022-10-22T09:49:01.941Z,1015.4
2022-10-22T09:50:01.947Z,1015.5
2022-10-22T09:51:01.756Z,1015.5
2022-10-22T09:52:02.816Z,1015.4
2022-10-22T09:53:02.684Z,1015.4
2022-10-22T09:54:02.703Z,1015.4
2022-10-22T09:55:02.563Z,1015.4
2022-10-22T09:56:02.607Z,1015.5
2022-10-22T09:57:02.469Z,1015.5
2022-10-22T09:58:02.543Z,1015.5
2022-10-22T09:59:02.477Z,1015.5
2022-10-22T10:00:02.294Z,1015.5
2022-10-22T10:01:02.552Z,1015.5
2022-10-22T10:02:38.466Z,1015.5
2022-10-22T10:03:01.978Z,1015.6
2022-10-22T10:04:10.146Z,1015.5
2022-10-22T10:05:01.939Z,1015.5
2022-10-22T10:06:06.611Z,1015.5
2022-10-22T10:07:02.537Z,1015.5
2022-10-22T10:08:02.369Z,1015.5
2022-10-22T10:09:02.454Z,1015.5
2022-10-22T10:10:02.310Z,1015.5
2022-10-22T10:11:02.238Z,1015.4
2022-10-22T10:12:02.178Z,1015.4
2022-10-22T10:13:02.082Z,1015.4
2022-10-22T10:14:02.293Z,1015.4
2022-10-22T10:15:02.087Z,1015.4
2022-10-22T10:16:01.955Z,1015.4
2022-10-22T10:17:02.262Z,1015.4
2022-10-22T10:18:02.172Z,1015.3
2022-10-22T10:19:02.084Z,1015.4
2022-10-22T10:20:04.845Z,1015.4
2022-10-22T10:21:03.159Z,1015.4
2022-10-22T10:22:01.978Z,1015.5
2022-10-22T10:23:01.870Z,1015.4
2022-10-22T10:24:01.810Z,1015.3
2022-10-22T10:25:01.919Z,1015.3
2022-10-22T10:26:02.730Z,1015.3
2022-10-22T10:27:02.735Z,1015.3
2022-10-22T10:28:02.660Z,1015.3
2022-10-22T10:29:02.643Z,1015.3
2022-10-22T10:30:02.610Z,1015.3
2022-10-22T10:31:02.570Z,1015.3
2022-10-22T10:32:02.339Z,1015.3
2022-10-22T10:33:02.272Z,1015.4
2022-10-22T10:34:02.153Z,1015.4
2022-10-22T10:35:02.062Z,1015.4
2022-10-22T10:36:01.981Z,1015.4
2022-10-22T10:37:01.855Z,1015.3
2022-10-22T10:38:01.823Z,1015.3
2022-10-22T10:39:02.746Z,1015.3
2022-10-22T10:40:02.695Z,1015.2
2022-10-22T10:41:02.672Z,1015.2
2022-10-22T10:42:02.556Z,1015.2
2022-10-22T10:43:02.511Z,1015.2
2022-10-22T10:44:02.583Z,1015.2
2022-10-22T10:45:02.435Z,1015.2
2022-10-22T10:46:02.390Z,1015.2
2022-10-22T10:47:02.482Z,1015.3
2022-10-22T10:48:02.432Z,1015.3
2022-10-22T10:49:02.408Z,1015.3
2022-10-22T10:50:02.328Z,1015.4
2022-10-22T10:51:02.254Z,1015.3
2022-10-22T10:52:02.222Z,1015.3
2022-10-22T10:53:02.327Z,1015.4
2022-10-22T10:54:02.059Z,1015.4
2022-10-22T10:55:02.016Z,1015.3
2022-10-22T10:56:01.879Z,1015.3
2022-10-22T10:57:01.802Z,1015.3
2022-10-22T10:58:02.716Z,1015.2
2022-10-22T10:59:02.747Z,1015.3
2022-10-22T11:00:02.692Z,1015.3
2022-10-22T11:01:02.831Z,1015.2
2022-10-22T11:02:02.518Z,1015.2
2022-10-22T11:03:02.478Z,1015.2
2022-10-22T11:04:02.423Z,1015.2
2022-10-22T11:05:02.358Z,1015.2
2022-10-22T11:06:02.304Z,1015.3
2022-10-22T11:07:30.104Z,1015.3
2022-10-22T11:08:02.211Z,1015.2
2022-10-22T11:09:02.306Z,1015.2
2022-10-22T11:10:02.163Z,1015.2
2022-10-22T11:11:02.047Z,1015.2
2022-10-22T11:12:01.977Z,1015.1
2022-10-22T11:13:01.888Z,1015.1
2022-10-22T11:14:01.784Z,1015.1
2022-10-22T11:15:02.815Z,1015
2022-10-22T11:16:02.697Z,1015.1
2022-10-22T11:17:02.561Z,1015
2022-10-22T11:18:02.500Z,1015.1
2022-10-22T11:19:02.430Z,1015.1
2022-10-22T11:20:02.397Z,1015
2022-10-22T11:21:02.333Z,1015
2022-10-22T11:22:02.330Z,1015
2022-10-22T11:23:22.094Z,1015
2022-10-22T11:24:02.130Z,1015
2022-10-22T11:25:02.059Z,1015
2022-10-22T11:26:01.903Z,1015
2022-10-22T11:27:01.841Z,1014.9
2022-10-22T11:28:11.637Z,1014.9
2022-10-22T11:29:02.487Z,1015
2022-10-22T11:30:02.428Z,1014.9
2022-10-22T11:31:02.275Z,1014.9
2022-10-22T11:32:02.308Z,1015
2022-10-22T11:33:02.211Z,1014.9
2022-10-22T11:34:34.560Z,1014.9
2022-10-22T11:35:02.424Z,1015
2022-10-22T11:36:02.387Z,1015
2022-10-22T11:37:02.368Z,1015
2022-10-22T11:38:02.263Z,1015
2022-10-22T11:39:02.173Z,1015
2022-10-22T11:40:02.050Z,1014.9
2022-10-22T11:41:01.967Z,1015
2022-10-22T11:42:01.853Z,1015
2022-10-22T11:43:01.769Z,1015
2022-10-22T11:44:02.718Z,1014.9
2022-10-22T11:45:02.721Z,1015
2022-10-22T11:46:02.654Z,1015
2022-10-22T11:47:02.487Z,1015
2022-10-22T11:48:02.411Z,1015
2022-10-22T11:49:02.380Z,1014.9
2022-10-22T11:50:02.212Z,1015
2022-10-22T11:51:02.124Z,1015
2022-10-22T11:52:05.487Z,1015
2022-10-22T11:53:02.461Z,1015
2022-10-22T11:54:02.265Z,1015.1
2022-10-22T11:55:02.153Z,1015.1
2022-10-22T11:56:02.092Z,1015
2022-10-22T11:57:02.000Z,1015.1
2022-10-22T11:58:01.877Z,1015
2022-10-22T11:59:01.790Z,1015
2022-10-22T12:00:02.758Z,1015
2022-10-22T12:01:02.710Z,1015
2022-10-22T12:02:02.439Z,1015
2022-10-22T12:03:02.380Z,1014.9
2022-10-22T12:04:02.272Z,1015
2022-10-22T12:05:02.225Z,1014.9
2022-10-22T12:06:02.118Z,1015
2022-10-22T12:07:02.089Z,1014.9
2022-10-22T12:08:01.991Z,1015
2022-10-22T12:09:02.280Z,1014.9
2022-10-22T12:10:02.058Z,1014.9
2022-10-22T12:11:01.916Z,1014.9
2022-10-22T12:12:01.831Z,1014.9
2022-10-22T12:13:01.796Z,1015
2022-10-22T12:14:02.729Z,1015
2022-10-22T12:15:02.664Z,1014.9
2022-10-22T12:16:02.645Z,1014.9
2022-10-22T12:17:02.585Z,1015
2022-10-22T12:18:02.805Z,1015
2022-10-22T12:19:02.637Z,1015.1
2022-10-22T12:20:03.528Z,1015.1
2022-10-22T12:21:02.318Z,1015
2022-10-22T12:22:02.223Z,1014.9
2022-10-22T12:23:02.206Z,1015
2022-10-22T12:24:02.112Z,1014.9
2022-10-22T12:25:02.048Z,1014.8
2022-10-22T12:26:02.005Z,1014.8
2022-10-22T12:27:01.873Z,1014.8
2022-10-22T12:28:01.786Z,1014.8
2022-10-22T12:29:01.766Z,1014.8
2022-10-22T12:30:02.729Z,1014.9
2022-10-22T12:31:01.762Z,1014.9
2022-10-22T12:32:02.660Z,1014.9
2022-10-22T12:33:02.635Z,1014.9
2022-10-22T12:34:02.571Z,1014.9
2022-10-22T12:35:02.471Z,1014.9
2022-10-22T12:36:02.427Z,1014.8
2022-10-22T12:37:02.382Z,1014.8
2022-10-22T12:38:02.320Z,1014.9
2022-10-22T12:39:02.264Z,1014.9
2022-10-22T12:40:02.200Z,1015